Agricola Oriental Norte, Mexico

12:46 PM CDT on May 24, 2017 (GMT -0500)
Avenida Santiago | | Change Station

Elev 7342 ft 19.39 °N, 99.13 °W | Updated 6 minutes ago

Scattered Clouds
Scattered Clouds
82.0 °F
Feels Like 82 °F
N
5.0
Wind Variable Wind from SE
Gusts 7.5 mph

Today
High -- | Low -- °F
--% Chance of Precip.
Yesterday
High -- | Low -- °F
Precip. -- in
Pressure 30.27 in
Visibility 6.0 miles
Clouds Scattered Clouds 2000 ft
Heat Index 82 °F
Dew Point 60 °F
Humidity 47%
Rainfall 0.00 in
Snow Depth Not available.
6:58 AM 8:08 PM
Waning Crescent, 2% visible
SPECI MMMX 241742Z 35007KT 6SM SCT020 25/10 A3027 NOSIG RMK 8/100 HZY ISOL MDT CU
Pressure 30.27 in
Visibility 6.0 miles
Clouds Scattered Clouds 2000 ft
Heat Index 82 °F
Dew Point 60 °F
Humidity 47%
Rainfall 0.00 in
Snow Depth Not available.
6:58 AM 8:08 PM
Waning Crescent, 2% visible
SPECI MMMX 241742Z 35007KT 6SM SCT020 25/10 A3027 NOSIG RMK 8/100 HZY ISOL MDT CU

Get Severe Weather Alerts

Thanks for signing up!

Be on the lookout for a verification email in your inbox.

You'll start receiving the daily forecast at 6 AM.

×

10-Day Weather Forecast

No radar image for this location.
×

Almanac

Astronomy

May. 24, 2017 Rise Set
Actual Time
Civil Twilight
Nautical Twilight
Astronomical Twilight
Moon
Length of Visible Light
Length of Day
Tomorrow will be .
, % of the Moon is Illuminated

Today's Extremes

Country Highs Country Lows

Community

WunderPhotos

Category 6

Welcome to Category 6. This is the collective home for Weather Underground's featured writeups by Dr. Jeff Masters (right), Bob Henson (left), Chris Burt, and other regular contributors.

Nearby

Air Quality

  Air Quality AQ Index Pollutant
Not available.

Snow Depth

Station Depth Elevation

Earthquake Activity

City Distance Mag. Time & Date
Minimum magnitude displayed is 2.5.

Coastal Water Temperatures

Place Temperature

Stations

Nearby Weather Stations

Station Location Temp. Windchill Dew Point Humidity Wind Precip. Elev Updated Type